createdAt,value
2019-03-23T00:00:36.046Z,6.21
2019-03-23T00:01:36.070Z,6.33
2019-03-23T00:02:36.098Z,6.31
2019-03-23T00:03:36.124Z,6.37
2019-03-23T00:04:36.153Z,6.28
2019-03-23T00:05:36.177Z,6.33
2019-03-23T00:06:36.205Z,6.30
2019-03-23T00:07:36.231Z,6.21
2019-03-23T00:08:36.258Z,6.30
2019-03-23T00:09:36.285Z,6.15
2019-03-23T00:10:36.311Z,6.21
2019-03-23T00:11:36.344Z,6.19
2019-03-23T00:12:36.367Z,6.04
2019-03-23T00:13:36.393Z,6.08
2019-03-23T00:14:36.420Z,6.09
2019-03-23T00:15:36.447Z,5.90
2019-03-23T00:16:36.475Z,5.96
2019-03-23T00:17:36.500Z,5.86
2019-03-23T00:18:36.528Z,6.09
2019-03-23T00:19:36.559Z,5.99
2019-03-23T00:20:36.579Z,5.97
2019-03-23T00:21:36.605Z,6.06
2019-03-23T00:22:36.633Z,5.93
2019-03-23T00:23:36.659Z,5.91
2019-03-23T00:24:36.687Z,5.93
2019-03-23T00:25:36.712Z,5.93
2019-03-23T00:26:36.739Z,5.74
2019-03-23T00:27:36.766Z,5.78
2019-03-23T00:28:36.796Z,5.67
2019-03-23T00:29:36.818Z,5.72
2019-03-23T00:30:36.845Z,5.65
2019-03-23T00:31:36.876Z,5.72
2019-03-23T00:32:36.899Z,5.74
2019-03-23T00:33:36.926Z,5.89
2019-03-23T00:34:36.954Z,5.96
2019-03-23T00:35:36.978Z,5.89
2019-03-23T00:36:41.407Z,5.85
2019-03-23T00:37:37.034Z,5.85
2019-03-23T00:38:37.109Z,5.85
2019-03-23T00:39:37.085Z,5.96
2019-03-23T00:40:37.113Z,5.89
2019-03-23T00:41:37.138Z,5.82
2019-03-23T00:42:37.164Z,5.74
2019-03-23T00:43:37.193Z,5.78
2019-03-23T00:44:37.218Z,5.65
2019-03-23T00:45:37.245Z,5.74
2019-03-23T00:46:37.273Z,5.58
2019-03-23T00:47:37.298Z,5.67
2019-03-23T00:48:37.327Z,5.76
2019-03-23T00:49:37.351Z,5.78
2019-03-23T00:50:37.379Z,5.81
2019-03-23T00:51:37.404Z,5.89
2019-03-23T00:52:37.433Z,5.85
2019-03-23T00:53:37.458Z,5.90
2019-03-23T00:54:37.486Z,5.90
2019-03-23T00:55:37.512Z,6.00
2019-03-23T00:56:37.538Z,5.94
2019-03-23T00:57:37.563Z,6.01
2019-03-23T00:58:37.592Z,6.06
2019-03-23T00:59:37.617Z,6.06
2019-03-23T01:00:37.644Z,6.09
2019-03-23T01:01:37.670Z,6.17
2019-03-23T01:02:37.699Z,6.25
2019-03-23T01:03:37.723Z,6.17
2019-03-23T01:04:37.750Z,6.22
2019-03-23T01:05:37.777Z,6.25
2019-03-23T01:06:37.803Z,6.25
2019-03-23T01:07:37.829Z,6.14
2019-03-23T01:08:37.858Z,6.08
2019-03-23T01:09:37.882Z,6.08
2019-03-23T01:10:37.908Z,5.94
2019-03-23T01:11:37.936Z,5.91
2019-03-23T01:12:37.963Z,5.93
2019-03-23T01:13:37.989Z,5.96
2019-03-23T01:14:38.016Z,6.03
2019-03-23T01:15:38.041Z,5.94
2019-03-23T01:16:38.068Z,5.91
2019-03-23T01:17:38.096Z,5.90
2019-03-23T01:18:38.124Z,5.90
2019-03-23T01:19:38.147Z,5.89
2019-03-23T01:20:38.174Z,5.83
2019-03-23T01:21:38.200Z,5.79
2019-03-23T01:22:38.227Z,5.78
2019-03-23T01:23:38.254Z,5.82
2019-03-23T01:24:38.284Z,5.81
2019-03-23T01:25:38.307Z,5.94
2019-03-23T01:26:38.334Z,5.90
2019-03-23T01:27:38.366Z,5.97
2019-03-23T01:28:38.387Z,5.86
2019-03-23T01:29:38.413Z,5.89
2019-03-23T01:30:38.439Z,5.85
2019-03-23T01:31:38.471Z,5.72
2019-03-23T01:32:38.492Z,5.67
2019-03-23T01:33:38.517Z,5.67
2019-03-23T01:34:38.545Z,5.58
2019-03-23T01:35:38.571Z,5.53
2019-03-23T01:36:38.597Z,5.51
2019-03-23T01:37:38.623Z,5.30
2019-03-23T01:38:38.649Z,5.36
2019-03-23T01:39:38.676Z,5.39
2019-03-23T01:40:38.704Z,5.22
2019-03-23T01:41:38.728Z,5.33
2019-03-23T01:42:38.755Z,5.17
2019-03-23T01:43:38.781Z,5.18
2019-03-23T01:44:38.808Z,5.33
2019-03-23T01:45:38.834Z,5.40
2019-03-23T01:46:38.862Z,5.45
2019-03-23T01:47:38.888Z,5.43
2019-03-23T01:48:38.914Z,5.57
2019-03-23T01:49:38.941Z,5.49
2019-03-23T01:50:38.966Z,5.61
2019-03-23T01:51:38.992Z,5.72
2019-03-23T01:52:39.022Z,5.67
2019-03-23T01:53:39.045Z,5.60
2019-03-23T01:54:39.071Z,5.49
2019-03-23T01:55:39.098Z,5.46
2019-03-23T01:56:39.125Z,5.48
2019-03-23T01:57:39.149Z,5.48
2019-03-23T01:58:39.176Z,5.48
2019-03-23T01:59:39.202Z,5.56
2019-03-23T02:00:39.256Z,5.61
2019-03-23T02:01:39.255Z,5.58
2019-03-23T02:02:39.281Z,5.49
2019-03-23T02:03:39.307Z,5.43
2019-03-23T02:04:39.335Z,5.54
2019-03-23T02:05:39.359Z,5.42
2019-03-23T02:06:39.386Z,5.49
2019-03-23T02:07:39.412Z,5.39
2019-03-23T02:08:39.439Z,5.45
2019-03-23T02:09:39.464Z,5.43
2019-03-23T02:10:41.788Z,5.40
2019-03-23T02:11:39.517Z,5.38
2019-03-23T02:12:39.544Z,5.38
2019-03-23T02:13:39.570Z,5.51
2019-03-23T02:14:39.597Z,5.46
2019-03-23T02:15:39.623Z,5.39
2019-03-23T02:16:39.648Z,5.30
2019-03-23T02:17:39.675Z,5.43
2019-03-23T02:18:39.700Z,5.40
2019-03-23T02:19:39.729Z,5.28
2019-03-23T02:20:39.758Z,5.25
2019-03-23T02:21:39.778Z,5.33
2019-03-23T02:22:39.803Z,5.43
2019-03-23T02:23:39.832Z,5.42
2019-03-23T02:24:39.857Z,5.39
2019-03-23T02:25:39.884Z,5.31
2019-03-23T02:26:39.909Z,5.39
2019-03-23T02:27:39.937Z,5.30
2019-03-23T02:28:39.961Z,5.28
2019-03-23T02:29:39.988Z,5.33
2019-03-23T02:30:40.027Z,5.31
2019-03-23T02:31:40.044Z,5.24
2019-03-23T02:32:40.071Z,5.20
2019-03-23T02:33:40.201Z,5.18
2019-03-23T02:34:40.116Z,5.22
2019-03-23T02:35:40.146Z,5.07
2019-03-23T02:36:40.180Z,5.12
2019-03-23T02:37:40.199Z,5.03
2019-03-23T02:38:40.223Z,5.03
2019-03-23T02:39:40.250Z,5.03
2019-03-23T02:40:40.276Z,5.13
2019-03-23T02:41:40.299Z,5.00
2019-03-23T02:42:40.384Z,5.02
2019-03-23T02:43:40.353Z,4.96
2019-03-23T02:44:40.384Z,4.97
2019-03-23T02:45:40.407Z,5.04
2019-03-23T02:46:40.435Z,5.09
2019-03-23T02:47:40.565Z,5.13
2019-03-23T02:48:40.489Z,5.09
2019-03-23T02:49:40.518Z,5.07
2019-03-23T02:50:40.538Z,5.06
2019-03-23T02:51:40.562Z,5.00
2019-03-23T02:52:40.589Z,5.10
2019-03-23T02:53:40.613Z,5.09
2019-03-23T02:54:40.787Z,5.06
2019-03-23T02:55:40.667Z,5.07
2019-03-23T02:56:40.691Z,5.06
2019-03-23T02:57:40.716Z,5.18
2019-03-23T02:58:40.746Z,5.10
2019-03-23T02:59:40.775Z,5.06
2019-03-23T03:00:40.795Z,4.99
2019-03-23T03:01:40.822Z,5.07
2019-03-23T03:02:40.848Z,5.07
2019-03-23T03:03:40.874Z,5.09
2019-03-23T03:04:40.903Z,5.13
2019-03-23T03:05:40.924Z,5.09
2019-03-23T03:06:40.949Z,5.07
2019-03-23T03:07:43.268Z,4.96
2019-03-23T03:08:41.002Z,5.00
2019-03-23T03:09:41.026Z,4.99
2019-03-23T03:10:41.078Z,5.03
2019-03-23T03:11:41.082Z,4.91
2019-03-23T03:12:41.108Z,4.91
2019-03-23T03:13:41.131Z,4.88
2019-03-23T03:14:41.157Z,4.92
2019-03-23T03:15:41.194Z,4.84
2019-03-23T03:16:41.208Z,4.84
2019-03-23T03:17:41.286Z,4.85
2019-03-23T03:18:41.259Z,4.82
2019-03-23T03:19:41.285Z,4.72
2019-03-23T03:20:41.315Z,4.70
2019-03-23T03:21:41.337Z,4.66
2019-03-23T03:22:41.362Z,4.55
2019-03-23T03:23:41.390Z,4.45
2019-03-23T03:24:41.418Z,4.37
2019-03-23T03:25:41.444Z,4.37
2019-03-23T03:26:41.469Z,4.40
2019-03-23T03:27:41.498Z,4.41
2019-03-23T03:28:41.517Z,4.41
2019-03-23T03:29:41.543Z,4.44
2019-03-23T03:30:41.570Z,4.60
2019-03-23T03:31:41.595Z,4.54
2019-03-23T03:32:41.624Z,4.58
2019-03-23T03:33:41.648Z,4.51
2019-03-23T03:34:41.672Z,4.62
2019-03-23T03:35:41.703Z,4.55
2019-03-23T03:36:41.724Z,4.58
2019-03-23T03:37:55.334Z,4.63
2019-03-23T03:38:41.775Z,4.59
2019-03-23T03:39:41.800Z,4.55
2019-03-23T03:40:41.826Z,4.58
2019-03-23T03:41:41.852Z,4.52
2019-03-23T03:42:41.878Z,4.58
2019-03-23T03:43:41.906Z,4.55
2019-03-23T03:44:41.942Z,4.55
2019-03-23T03:45:41.954Z,4.55
2019-03-23T03:46:41.980Z,4.72
2019-03-23T03:47:42.005Z,4.67
2019-03-23T03:48:42.032Z,4.72
2019-03-23T03:49:42.056Z,4.66
2019-03-23T03:50:42.083Z,4.72
2019-03-23T03:51:42.108Z,4.84
2019-03-23T03:52:42.134Z,4.73
2019-03-23T03:53:42.159Z,4.96
2019-03-23T03:54:42.185Z,4.73
2019-03-23T03:55:42.211Z,4.70
2019-03-23T03:56:42.236Z,4.78
2019-03-23T03:57:42.267Z,4.67
2019-03-23T03:58:42.287Z,4.66
2019-03-23T03:59:42.313Z,4.67
2019-03-23T04:00:42.339Z,4.60
2019-03-23T04:01:42.366Z,4.70
2019-03-23T04:02:42.410Z,4.55
2019-03-23T04:03:42.431Z,4.50
2019-03-23T04:04:42.443Z,4.45
2019-03-23T04:05:42.476Z,4.47
2019-03-23T04:06:42.492Z,4.45
2019-03-23T04:07:42.530Z,4.48
2019-03-23T04:08:42.558Z,4.54
2019-03-23T04:09:42.568Z,4.58
2019-03-23T04:10:42.647Z,4.54
2019-03-23T04:11:42.622Z,4.54
2019-03-23T04:12:45.100Z,4.51
2019-03-23T04:13:42.671Z,4.58
2019-03-23T04:14:42.704Z,4.50
2019-03-23T04:15:42.730Z,4.55
2019-03-23T04:16:42.748Z,4.47
2019-03-23T04:17:42.773Z,4.50
2019-03-23T04:18:42.806Z,4.32
2019-03-23T04:19:42.824Z,4.42
2019-03-23T04:20:42.850Z,4.50
2019-03-23T04:21:42.895Z,4.36
2019-03-23T04:22:42.899Z,4.42
2019-03-23T04:23:42.926Z,4.33
2019-03-23T04:24:42.953Z,4.36
2019-03-23T04:25:42.977Z,4.40
2019-03-23T04:26:43.003Z,4.30
2019-03-23T04:27:43.028Z,4.22
2019-03-23T04:28:43.256Z,4.08
2019-03-23T04:29:43.078Z,4.12
2019-03-23T04:30:43.102Z,4.06
2019-03-23T04:31:43.130Z,3.98
2019-03-23T04:32:43.163Z,4.09
2019-03-23T04:33:43.210Z,4.11
2019-03-23T04:34:43.204Z,4.04
2019-03-23T04:35:43.231Z,4.00
2019-03-23T04:36:43.258Z,4.11
2019-03-23T04:37:43.382Z,4.23
2019-03-23T04:38:43.308Z,4.23
2019-03-23T04:39:43.341Z,4.24
2019-03-23T04:40:43.358Z,4.24
2019-03-23T04:41:43.381Z,4.18
2019-03-23T04:42:43.406Z,4.32
2019-03-23T04:43:43.433Z,4.32
2019-03-23T04:44:43.459Z,4.24
2019-03-23T04:45:43.483Z,4.22
2019-03-23T04:46:44.052Z,4.27
2019-03-23T04:47:43.535Z,4.23
2019-03-23T04:48:43.561Z,4.27
2019-03-23T04:49:43.587Z,4.29
2019-03-23T04:50:43.610Z,4.34
2019-03-23T04:51:43.636Z,4.27
2019-03-23T04:52:43.661Z,4.24
2019-03-23T04:53:43.697Z,4.26
2019-03-23T04:54:43.716Z,4.27
2019-03-23T04:55:43.740Z,4.32
2019-03-23T04:56:43.762Z,4.27
2019-03-23T04:57:43.788Z,4.30
2019-03-23T04:58:43.812Z,4.29
2019-03-23T04:59:43.846Z,4.41
2019-03-23T05:00:43.863Z,4.32
2019-03-23T05:01:43.889Z,4.29
2019-03-23T05:02:43.913Z,4.12
2019-03-23T05:03:43.940Z,4.18
2019-03-23T05:04:43.970Z,4.05
2019-03-23T05:05:43.989Z,4.16
2019-03-23T05:06:44.015Z,4.30
2019-03-23T05:07:44.039Z,4.22
2019-03-23T05:08:44.067Z,4.30
2019-03-23T05:09:44.091Z,4.18
2019-03-23T05:10:44.114Z,4.26
2019-03-23T05:11:44.141Z,4.24
2019-03-23T05:12:44.166Z,4.20
2019-03-23T05:13:44.207Z,4.14
2019-03-23T05:14:44.218Z,4.00
2019-03-23T05:15:44.242Z,4.08
2019-03-23T05:16:44.268Z,3.93
2019-03-23T05:17:44.294Z,3.96
2019-03-23T05:18:44.320Z,4.09
2019-03-23T05:19:44.345Z,4.12
2019-03-23T05:20:44.369Z,4.16
2019-03-23T05:21:44.395Z,4.15
2019-03-23T05:22:44.420Z,4.22
2019-03-23T05:23:45.842Z,4.15
2019-03-23T05:24:44.471Z,4.32
2019-03-23T05:25:44.499Z,4.27
2019-03-23T05:26:44.521Z,4.36
2019-03-23T05:27:44.547Z,4.24
2019-03-23T05:28:44.572Z,4.27
2019-03-23T05:29:44.596Z,4.29
2019-03-23T05:30:44.622Z,4.34
2019-03-23T05:31:44.652Z,4.29
2019-03-23T05:32:44.677Z,4.29
2019-03-23T05:33:44.698Z,4.29
2019-03-23T05:34:44.723Z,4.30
2019-03-23T05:35:44.749Z,4.18
2019-03-23T05:36:44.777Z,4.37
2019-03-23T05:37:44.799Z,4.44
2019-03-23T05:38:45.002Z,4.32
2019-03-23T05:39:44.852Z,4.30
2019-03-23T05:40:44.875Z,4.42
2019-03-23T05:41:44.900Z,4.41
2019-03-23T05:42:44.926Z,4.32
2019-03-23T05:43:44.951Z,4.42
2019-03-23T05:44:44.983Z,4.37
2019-03-23T05:45:45.003Z,4.36
2019-03-23T05:46:45.028Z,4.32
2019-03-23T05:47:45.053Z,4.36
2019-03-23T05:48:45.080Z,4.32
2019-03-23T05:49:45.102Z,4.33
2019-03-23T05:50:45.129Z,4.47
2019-03-23T05:51:45.154Z,4.40
2019-03-23T05:52:45.180Z,4.15
2019-03-23T05:53:45.204Z,4.22
2019-03-23T05:54:45.229Z,4.18
2019-03-23T05:55:45.256Z,4.40
2019-03-23T05:56:45.281Z,4.42
2019-03-23T05:57:45.307Z,4.45
2019-03-23T05:58:45.335Z,4.41
2019-03-23T05:59:45.357Z,4.32
2019-03-23T06:00:45.382Z,4.52
2019-03-23T06:01:45.410Z,4.51
2019-03-23T06:02:45.432Z,4.47
2019-03-23T06:03:45.458Z,4.55
2019-03-23T06:04:45.484Z,4.55
2019-03-23T06:05:45.508Z,4.60
2019-03-23T06:06:45.535Z,4.50
2019-03-23T06:07:45.560Z,4.52
2019-03-23T06:08:54.453Z,4.58
2019-03-23T06:09:45.610Z,4.51
2019-03-23T06:10:45.635Z,4.63
2019-03-23T06:11:45.660Z,4.69
2019-03-23T06:12:45.688Z,4.69
2019-03-23T06:13:45.711Z,4.70
2019-03-23T06:14:45.741Z,4.69
2019-03-23T06:15:45.765Z,4.73
2019-03-23T06:16:45.790Z,4.54
2019-03-23T06:17:45.814Z,4.55
2019-03-23T06:18:45.840Z,4.62
2019-03-23T06:19:45.867Z,4.66
2019-03-23T06:20:45.891Z,4.69
2019-03-23T06:21:45.917Z,4.88
2019-03-23T06:22:45.942Z,4.92
2019-03-23T06:23:45.968Z,5.00
2019-03-23T06:24:45.993Z,5.09
2019-03-23T06:25:46.020Z,5.10
2019-03-23T06:26:46.045Z,5.17
2019-03-23T06:27:46.071Z,5.22
2019-03-23T06:28:46.102Z,5.42
2019-03-23T06:29:46.121Z,5.43
2019-03-23T06:30:46.151Z,5.46
2019-03-23T06:31:46.175Z,5.42
2019-03-23T06:32:46.204Z,5.31
2019-03-23T06:33:46.243Z,5.27
2019-03-23T06:34:46.255Z,5.24
2019-03-23T06:35:46.279Z,5.21
2019-03-23T06:36:46.303Z,5.17
2019-03-23T06:37:46.340Z,5.13
2019-03-23T06:38:46.356Z,5.28
2019-03-23T06:39:46.387Z,5.43
2019-03-23T06:40:46.409Z,5.43
2019-03-23T06:41:46.435Z,5.45
2019-03-23T06:42:46.462Z,5.48
2019-03-23T06:43:46.488Z,5.48
2019-03-23T06:44:46.514Z,5.63
2019-03-23T06:45:46.540Z,5.60
2019-03-23T06:46:46.565Z,5.61
2019-03-23T06:47:46.592Z,5.60
2019-03-23T06:48:46.618Z,5.60
2019-03-23T06:49:46.644Z,5.54
2019-03-23T06:50:46.671Z,5.49
2019-03-23T06:51:46.701Z,5.39
2019-03-23T06:52:46.723Z,5.49
2019-03-23T06:53:46.749Z,5.42
2019-03-23T06:54:46.775Z,5.43
2019-03-23T06:55:46.804Z,5.64
2019-03-23T06:56:46.828Z,5.61
2019-03-23T06:57:46.855Z,5.63
2019-03-23T06:58:46.885Z,5.74
2019-03-23T06:59:46.908Z,5.79
2019-03-23T07:00:46.935Z,5.86
2019-03-23T07:01:46.963Z,5.90
2019-03-23T07:02:46.988Z,6.03
2019-03-23T07:03:47.014Z,6.06
2019-03-23T07:04:47.043Z,6.17
2019-03-23T07:05:47.070Z,6.18
2019-03-23T07:06:47.096Z,6.27
2019-03-23T07:07:47.122Z,6.33
2019-03-23T07:08:47.149Z,6.34
2019-03-23T07:09:47.177Z,6.37
2019-03-23T07:10:47.210Z,6.51
2019-03-23T07:11:47.234Z,6.52
2019-03-23T07:12:47.258Z,6.58
2019-03-23T07:13:47.384Z,6.54
2019-03-23T07:14:47.311Z,6.62
2019-03-23T07:15:47.338Z,6.71
2019-03-23T07:16:47.366Z,6.89
2019-03-23T07:17:47.392Z,6.84
2019-03-23T07:18:47.420Z,6.94
2019-03-23T07:19:47.446Z,7.06
2019-03-23T07:20:47.474Z,7.20
2019-03-23T07:21:47.502Z,7.31
2019-03-23T07:22:47.528Z,7.46
2019-03-23T07:23:47.556Z,7.61
2019-03-23T07:24:47.585Z,7.77
2019-03-23T07:25:47.612Z,7.72
2019-03-23T07:26:47.639Z,7.77
2019-03-23T07:27:47.666Z,7.83
2019-03-23T07:28:47.695Z,7.97
2019-03-23T07:29:47.721Z,7.90
2019-03-23T07:30:47.749Z,7.98
2019-03-23T07:31:47.778Z,8.04
2019-03-23T07:32:47.809Z,8.22
2019-03-23T07:33:47.831Z,8.19
2019-03-23T07:34:47.863Z,8.28
2019-03-23T07:35:47.943Z,8.34
2019-03-23T07:36:47.917Z,8.36
2019-03-23T07:37:47.944Z,8.44
2019-03-23T07:38:47.972Z,8.50
2019-03-23T07:39:48.002Z,8.68
2019-03-23T07:40:48.033Z,8.73
2019-03-23T07:41:48.058Z,8.74
2019-03-23T07:42:48.085Z,8.89
2019-03-23T07:43:48.114Z,8.96
2019-03-23T07:44:48.144Z,8.91
2019-03-23T07:45:48.171Z,9.05
2019-03-23T07:46:48.199Z,9.14
2019-03-23T07:47:48.287Z,9.21
2019-03-23T07:48:48.259Z,9.35
2019-03-23T07:49:48.289Z,9.38
2019-03-23T07:50:48.315Z,9.46
2019-03-23T07:51:48.344Z,9.51
2019-03-23T07:52:48.372Z,9.53
2019-03-23T07:53:48.401Z,9.60
2019-03-23T07:54:48.452Z,9.74
2019-03-23T07:55:48.460Z,9.84
2019-03-23T07:56:48.489Z,9.87
2019-03-23T07:57:48.517Z,9.90
2019-03-23T07:58:48.547Z,10.08
2019-03-23T07:59:48.598Z,10.15
2019-03-23T08:00:51.228Z,10.22
2019-03-23T08:01:50.051Z,10.22
2019-03-23T08:02:48.690Z,10.40
2019-03-23T08:03:49.706Z,10.56
2019-03-23T08:04:48.951Z,10.61
2019-03-23T08:05:49.693Z,10.68
2019-03-23T08:12:43.328Z,11.36
2019-03-23T08:18:03.807Z,11.96
2019-03-23T08:20:03.862Z,12.13
2019-03-23T08:22:03.925Z,12.34
2019-03-23T08:23:03.957Z,12.49
2019-03-23T08:24:03.988Z,12.52
2019-03-23T08:25:04.017Z,12.62
2019-03-23T08:26:04.050Z,12.78
2019-03-23T08:27:04.080Z,12.83
2019-03-23T08:28:04.110Z,12.92
2019-03-23T08:29:04.144Z,12.96
2019-03-23T08:30:04.173Z,13.05
2019-03-23T08:31:04.205Z,13.14
2019-03-23T08:32:04.239Z,13.25
2019-03-23T08:33:04.268Z,13.32
2019-03-23T08:34:04.299Z,13.59
2019-03-23T08:35:04.337Z,13.64
2019-03-23T08:36:04.364Z,13.75
2019-03-23T08:37:04.397Z,13.81
2019-03-23T08:38:04.430Z,13.77
2019-03-23T08:39:04.459Z,13.88
2019-03-23T08:40:04.492Z,13.97
2019-03-23T08:41:04.526Z,13.97
2019-03-23T08:42:04.555Z,14.00
2019-03-23T08:43:04.590Z,14.00
2019-03-23T08:44:04.618Z,13.97
2019-03-23T08:45:04.652Z,14.15
2019-03-23T08:46:04.684Z,14.07
2019-03-23T08:47:04.717Z,14.25
2019-03-23T08:48:04.750Z,14.43
2019-03-23T08:49:04.784Z,14.65
2019-03-23T08:50:04.816Z,14.89
2019-03-23T08:51:04.902Z,15.14
2019-03-23T08:52:04.884Z,15.31
2019-03-23T08:53:04.916Z,15.69
2019-03-23T08:54:04.948Z,16.50
2019-03-23T08:55:04.983Z,17.55
2019-03-23T08:56:05.016Z,18.41
2019-03-23T08:57:05.049Z,19.40
2019-03-23T08:58:05.082Z,20.38
2019-03-23T08:59:05.119Z,20.39
2019-03-23T09:00:05.152Z,20.50
2019-03-23T09:01:08.822Z,21.24
2019-03-23T09:02:05.245Z,21.24
2019-03-23T09:03:08.285Z,21.49
2019-03-23T09:04:05.295Z,21.46
2019-03-23T09:05:05.329Z,21.79
2019-03-23T09:06:05.372Z,21.92
2019-03-23T09:07:05.403Z,22.21
2019-03-23T09:08:05.439Z,22.45
2019-03-23T09:09:05.476Z,22.79
2019-03-23T09:10:05.514Z,23.02
2019-03-23T09:11:05.550Z,23.25
2019-03-23T09:12:05.587Z,23.53
2019-03-23T09:13:05.626Z,24.30
2019-03-23T09:14:05.664Z,24.00
2019-03-23T09:15:05.703Z,23.69
2019-03-23T09:16:05.740Z,23.88
2019-03-23T09:17:05.800Z,24.10
2019-03-23T09:18:05.840Z,24.91
2019-03-23T09:19:05.861Z,25.15
2019-03-23T09:20:05.896Z,24.49
2019-03-23T09:22:05.979Z,25.50
2019-03-23T09:23:06.017Z,24.88
2019-03-23T09:24:06.056Z,25.24
2019-03-23T09:25:06.095Z,25.15
2019-03-23T09:26:06.138Z,25.79
2019-03-23T09:28:06.217Z,25.85
2019-03-23T09:29:06.258Z,26.06
2019-03-23T09:30:06.576Z,25.98
2019-03-23T09:31:06.543Z,25.90
2019-03-23T09:33:06.427Z,25.85
2019-03-23T09:34:06.464Z,26.05
2019-03-23T09:35:06.730Z,27.03
2019-03-23T09:36:06.549Z,26.45
2019-03-23T09:37:06.591Z,26.57
2019-03-23T09:38:09.257Z,26.72
2019-03-23T09:39:06.680Z,27.49
2019-03-23T09:40:10.964Z,27.79
2019-03-23T09:42:07.163Z,27.07
2019-03-23T09:43:06.847Z,26.94
2019-03-23T09:44:07.114Z,27.44
2019-03-23T09:45:06.933Z,27.55
2019-03-23T09:46:06.975Z,27.31
2019-03-23T09:47:07.042Z,27.84
2019-03-23T09:48:07.063Z,28.00
2019-03-23T09:49:07.108Z,27.67
2019-03-23T09:50:07.179Z,26.75
2019-03-23T09:51:07.193Z,26.55
2019-03-23T09:52:07.237Z,26.36
2019-03-23T09:53:07.280Z,27.67
2019-03-23T09:54:07.326Z,27.63
2019-03-23T09:55:07.393Z,28.19
2019-03-23T09:56:07.414Z,27.63
2019-03-23T09:57:07.457Z,27.19
2019-03-23T09:58:07.502Z,27.03
2019-03-23T09:59:07.547Z,27.40
2019-03-23T10:01:55.210Z,26.72
2019-03-23T10:03:58.930Z,26.39
2019-03-23T10:04:55.363Z,26.84
2019-03-23T10:08:59.361Z,26.18
2019-03-23T10:09:55.592Z,27.09
2019-03-23T10:10:55.641Z,26.44
2019-03-23T10:12:55.705Z,26.28
2019-03-23T10:13:55.755Z,26.88
2019-03-23T10:14:55.801Z,26.85
2019-03-23T10:15:55.846Z,27.54
2019-03-23T10:16:55.890Z,28.18
2019-03-23T10:17:55.938Z,27.57
2019-03-23T10:18:56.007Z,27.57
2019-03-23T10:19:56.256Z,27.39
2019-03-23T10:20:56.076Z,27.66
2019-03-23T10:21:56.149Z,27.32
2019-03-23T10:22:56.192Z,28.14
2019-03-23T10:23:56.217Z,28.44
2019-03-23T10:24:56.263Z,28.73
2019-03-23T10:25:56.310Z,29.26
2019-03-23T10:26:56.360Z,30.23
2019-03-23T10:27:56.409Z,30.31
2019-03-23T10:28:56.452Z,29.87
2019-03-23T10:29:56.501Z,30.62
2019-03-23T10:30:56.548Z,31.25
2019-03-23T10:31:56.594Z,30.91
2019-03-23T10:32:56.644Z,31.13
2019-03-23T10:33:56.693Z,30.13
2019-03-23T10:34:56.739Z,29.71
2019-03-23T10:35:56.789Z,28.89
2019-03-23T10:36:56.834Z,28.88
2019-03-23T10:37:56.883Z,29.15
2019-03-23T10:38:56.931Z,29.49
2019-03-23T10:39:56.980Z,29.65
2019-03-23T10:40:57.027Z,30.05
2019-03-23T10:41:57.075Z,30.19
2019-03-23T10:42:57.125Z,30.35
2019-03-23T10:43:57.172Z,30.13
2019-03-23T10:44:57.222Z,30.91
2019-03-23T10:45:57.271Z,31.89
2019-03-23T10:46:57.319Z,32.72
2019-03-23T10:48:57.417Z,32.57
2019-03-23T10:49:57.467Z,31.92
2019-03-23T10:50:57.515Z,32.50
2019-03-23T10:51:57.563Z,31.31
2019-03-23T10:52:57.612Z,30.08
2019-03-23T10:53:57.862Z,30.13
2019-03-23T10:54:57.714Z,29.92
2019-03-23T10:55:57.760Z,30.43
2019-03-23T10:56:57.806Z,30.99
2019-03-23T10:57:57.856Z,31.20
2019-03-23T10:58:57.906Z,30.76
2019-03-23T10:59:57.956Z,30.95
2019-03-23T11:00:58.003Z,31.92
2019-03-23T11:01:58.057Z,31.06
2019-03-23T11:02:58.105Z,31.61
2019-03-23T11:03:58.152Z,31.06
2019-03-23T11:04:58.202Z,30.61
2019-03-23T11:05:58.252Z,30.70
2019-03-23T11:06:58.302Z,31.44
2019-03-23T11:07:58.350Z,31.91
2019-03-23T11:08:58.401Z,31.13
2019-03-23T11:09:58.451Z,29.71
2019-03-23T11:10:58.500Z,31.17
2019-03-23T11:11:58.550Z,30.64
2019-03-23T11:12:58.600Z,31.36
2019-03-23T11:13:58.650Z,31.43
2019-03-23T11:14:58.701Z,31.04
2019-03-23T11:15:58.749Z,31.73
2019-03-23T11:16:58.800Z,31.57
2019-03-23T11:17:58.851Z,31.53
2019-03-23T11:18:58.901Z,31.50
2019-03-23T11:19:58.952Z,30.61
2019-03-23T11:21:00.161Z,29.42
2019-03-23T11:21:59.051Z,29.28
2019-03-23T11:22:59.103Z,29.95
2019-03-23T11:23:59.151Z,30.82
2019-03-23T11:24:59.203Z,30.00
2019-03-23T11:25:59.256Z,30.92
2019-03-23T11:26:59.303Z,31.09
2019-03-23T11:27:59.353Z,32.04
2019-03-23T11:28:59.406Z,32.74
2019-03-23T11:29:59.456Z,31.57
2019-03-23T11:30:59.506Z,30.00
2019-03-23T11:31:59.554Z,30.31
2019-03-23T11:32:59.605Z,30.24
2019-03-23T11:33:59.655Z,30.82
2019-03-23T11:34:59.784Z,31.78
2019-03-23T11:35:59.757Z,31.89
2019-03-23T11:36:59.806Z,31.19
2019-03-23T11:38:02.233Z,31.36
2019-03-23T11:38:59.907Z,32.59
2019-03-23T11:39:59.958Z,33.06
2019-03-23T11:41:00.008Z,32.41
2019-03-23T11:42:00.059Z,32.44
2019-03-23T11:43:00.114Z,30.88
2019-03-23T11:44:00.160Z,30.69
2019-03-23T11:45:00.240Z,31.12
2019-03-23T11:46:00.260Z,31.63
2019-03-23T11:47:00.315Z,30.70
2019-03-23T11:48:00.365Z,31.63
2019-03-23T11:49:00.434Z,31.26
2019-03-23T11:50:00.793Z,31.91
2019-03-23T11:51:00.537Z,31.66
2019-03-23T11:53:01.956Z,31.92
2019-03-23T11:54:01.095Z,31.62
2019-03-23T11:55:00.715Z,32.26
2019-03-23T11:56:00.764Z,31.47
2019-03-23T11:57:01.447Z,31.09
2019-03-23T11:58:01.074Z,30.82
2019-03-23T11:59:00.917Z,31.19
2019-03-23T12:00:00.967Z,31.68
2019-03-23T12:01:01.019Z,32.43
2019-03-23T12:02:01.070Z,32.92
2019-03-23T12:03:01.121Z,33.53
2019-03-23T12:04:01.170Z,34.30
2019-03-23T12:05:01.220Z,34.54
2019-03-23T12:06:01.272Z,31.80
2019-03-23T12:07:01.322Z,30.83
2019-03-23T12:08:01.372Z,30.76
2019-03-23T12:09:01.423Z,31.66
2019-03-23T12:10:01.473Z,33.21
2019-03-23T12:11:03.049Z,32.93
2019-03-23T12:12:01.625Z,33.01
2019-03-23T12:13:01.648Z,33.61
2019-03-23T12:14:01.675Z,34.17
2019-03-23T12:15:01.734Z,32.55
2019-03-23T12:16:01.778Z,32.35
2019-03-23T12:17:01.929Z,32.14
2019-03-23T12:18:01.879Z,33.45
2019-03-23T12:19:01.936Z,33.51
2019-03-23T12:20:01.990Z,32.69
2019-03-23T12:21:02.032Z,33.35
2019-03-23T12:22:02.083Z,34.78
2019-03-23T12:23:02.134Z,34.80
2019-03-23T12:24:02.184Z,34.22
2019-03-23T12:25:02.235Z,33.79
2019-03-23T12:26:02.295Z,34.22
2019-03-23T12:27:02.337Z,34.27
2019-03-23T12:28:02.390Z,34.39
2019-03-23T12:29:02.442Z,34.49
2019-03-23T12:30:07.046Z,34.50
2019-03-23T12:31:02.544Z,31.66
2019-03-23T12:32:02.594Z,32.48
2019-03-23T12:33:02.647Z,33.16
2019-03-23T12:34:02.699Z,34.42
2019-03-23T12:35:02.749Z,33.63
2019-03-23T12:36:02.798Z,33.01
2019-03-23T12:37:02.850Z,33.00
2019-03-23T12:38:02.902Z,33.29
2019-03-23T12:39:02.954Z,32.93
2019-03-23T12:40:03.006Z,32.33
2019-03-23T12:41:14.144Z,31.51
2019-03-23T12:42:03.107Z,32.28
2019-03-23T12:43:03.158Z,32.82
2019-03-23T12:44:03.209Z,33.61
2019-03-23T12:45:03.260Z,34.52
2019-03-23T12:46:03.310Z,34.22
2019-03-23T12:47:03.363Z,34.81
2019-03-23T12:48:03.412Z,34.94
2019-03-23T12:49:03.463Z,33.65
2019-03-23T12:50:03.516Z,33.86
2019-03-23T12:51:03.568Z,33.88
2019-03-23T12:52:03.618Z,33.93
2019-03-23T12:53:03.674Z,33.37
2019-03-23T12:54:03.719Z,33.07
2019-03-23T12:55:03.777Z,33.72
2019-03-23T12:56:03.819Z,34.32
2019-03-23T12:57:03.871Z,35.33
2019-03-23T12:58:03.925Z,35.82
2019-03-23T12:59:03.975Z,34.65
2019-03-23T13:00:04.023Z,34.10
2019-03-23T13:01:04.075Z,32.88
2019-03-23T13:02:04.127Z,33.49
2019-03-23T13:03:04.178Z,32.94
2019-03-23T13:04:04.228Z,31.95
2019-03-23T13:05:04.282Z,31.93
2019-03-23T13:06:04.330Z,32.55
2019-03-23T13:07:04.383Z,32.88
2019-03-23T13:08:04.432Z,33.90
2019-03-23T13:09:04.484Z,34.05
2019-03-23T13:10:04.535Z,34.13
2019-03-23T13:11:04.587Z,35.07
2019-03-23T13:12:04.637Z,34.78
2019-03-23T13:13:04.690Z,35.16
2019-03-23T13:14:04.739Z,32.85
2019-03-23T13:15:04.800Z,32.66
2019-03-23T13:16:04.841Z,32.07
2019-03-23T13:17:04.893Z,31.66
2019-03-23T13:18:04.944Z,32.32
2019-03-23T13:19:04.995Z,32.38
2019-03-23T13:20:05.075Z,32.28
2019-03-23T13:21:05.097Z,32.96
2019-03-23T13:22:05.148Z,34.35
2019-03-23T13:23:05.199Z,35.38
2019-03-23T13:24:05.250Z,34.85
2019-03-23T13:25:05.301Z,35.10
2019-03-23T13:26:05.352Z,35.66
2019-03-23T13:27:05.407Z,33.68
2019-03-23T13:28:05.453Z,33.68
2019-03-23T13:29:05.510Z,33.37
2019-03-23T13:30:05.555Z,32.66
2019-03-23T13:31:05.609Z,33.04
2019-03-23T13:32:05.655Z,32.03
2019-03-23T13:33:05.710Z,30.45
2019-03-23T13:34:07.961Z,30.79